Time,TemperatureF,DewpointF,PressureIn,WindDirection,WindDirectionDegrees,WindSpeedMPH,WindSpeedGustMPH,Humidity,HourlyPrecipIn,Conditions,Clouds,dailyrainin,SoftwareType,DateUTC
2013-01-10 00:00:00,30.9,19.4,30.17,WNW,288,0.0,0.0,62,0.00,CLR,,0.00,WeatherDisplay:10.37,2013-01-10 05:00:00,
2013-01-10 00:01:00,30.9,19.4,30.17,WNW,288,0.0,0.0,62,0.00,CLR,,0.00,WeatherDisplay:10.37,2013-01-10 05:01:00,
2013-01-10 00:06:00,30.6,19.1,30.17,WNW,291,0.0,0.0,62,0.00,CLR,,0.00,WeatherDisplay:10.37,2013-01-10 05:06:00,
2013-01-10 00:11:00,30.6,19.5,30.17,WNW,288,0.0,0.0,63,0.00,CLR,,0.00,WeatherDisplay:10.37,2013-01-10 05:11:00,
2013-01-10 00:16:00,30.6,19.5,30.17,WNW,288,0.0,0.0,63,0.00,CLR,,0.00,WeatherDisplay:10.37,2013-01-10 05:16:00,
2013-01-10 00:21:00,30.2,19.1,30.17,WNW,288,0.0,0.0,63,0.00,CLR,,0.00,WeatherDisplay:10.37,2013-01-10 05:21:00,
2013-01-10 00:26:00,30.2,19.8,30.17,WNW,288,0.0,0.0,65,0.00,CLR,,0.00,WeatherDisplay:10.37,2013-01-10 05:26:00,
2013-01-10 00:31:00,30.2,19.8,30.17,WNW,288,0.0,0.0,65,0.00,CLR,,0.00,WeatherDisplay:10.37,2013-01-10 05:31:00,
2013-01-10 00:36:00,30.4,20.0,30.17,WNW,288,0.0,0.0,65,0.00,CLR,,0.00,WeatherDisplay:10.37,2013-01-10 05:36:00,
2013-01-10 00:41:00,30.4,20.0,30.17,WNW,288,0.0,0.0,65,0.00,CLR,,0.00,WeatherDisplay:10.37,2013-01-10 05:41:00,
2013-01-10 00:46:00,30.4,20.0,30.17,WNW,288,0.0,0.0,65,0.00,CLR,,0.00,WeatherDisplay:10.37,2013-01-10 05:46:00,
2013-01-10 00:51:00,30.2,20.2,30.17,WNW,288,0.0,0.0,66,0.00,CLR,,0.00,WeatherDisplay:10.37,2013-01-10 05:51:00,
2013-01-10 00:56:00,30.2,20.2,30.17,WNW,288,0.0,0.0,66,0.00,CLR,,0.00,WeatherDisplay:10.37,2013-01-10 05:56:00,
2013-01-10 01:01:00,30.2,20.2,30.20,WNW,288,0.0,0.0,66,0.00,CLR,,0.00,WeatherDisplay:10.37,2013-01-10 06:01:00,
2013-01-10 01:06:00,30.2,20.2,30.20,WNW,288,0.0,0.0,66,0.00,CLR,,0.00,WeatherDisplay:10.37,2013-01-10 06:06:00,
2013-01-10 01:11:00,30.0,20.0,30.20,WNW,288,0.0,0.0,66,0.00,CLR,,0.00,WeatherDisplay:10.37,2013-01-10 06:11:00,
2013-01-10 01:16:00,30.0,20.4,30.17,WNW,290,0.0,0.0,67,0.00,CLR,,0.00,WeatherDisplay:10.37,2013-01-10 06:16:00,
2013-01-10 01:21:00,30.0,20.4,30.17,WNW,288,0.0,0.0,67,0.00,CLR,,0.00,WeatherDisplay:10.37,2013-01-10 06:21:00,
2013-01-10 01:26:00,30.0,20.4,30.17,WNW,288,0.0,0.0,67,0.00,CLR,,0.00,WeatherDisplay:10.37,2013-01-10 06:26:00,
2013-01-10 01:31:00,29.8,20.2,30.17,WNW,288,0.0,0.0,67,0.00,CLR,,0.00,WeatherDisplay:10.37,2013-01-10 06:31:00,
2013-01-10 01:36:00,29.7,20.0,30.17,WNW,288,0.0,0.0,67,0.00,CLR,,0.00,WeatherDisplay:10.37,2013-01-10 06:36:00,
2013-01-10 01:41:00,29.5,19.9,30.17,WNW,288,0.0,0.0,67,0.00,CLR,,0.00,WeatherDisplay:10.37,2013-01-10 06:41:00,
2013-01-10 01:46:00,29.5,20.2,30.17,WNW,288,0.0,0.0,68,0.00,CLR,,0.00,WeatherDisplay:10.37,2013-01-10 06:46:00,
2013-01-10 01:51:00,29.3,20.0,30.17,WNW,288,0.0,0.0,68,0.00,CLR,,0.00,WeatherDisplay:10.37,2013-01-10 06:51:00,
2013-01-10 01:56:00,29.1,20.2,30.17,WNW,288,0.0,0.0,69,0.00,CLR,,0.00,WeatherDisplay:10.37,2013-01-10 06:56:00,
2013-01-10 02:01:00,29.1,20.2,30.17,WNW,288,0.0,0.0,69,0.00,CLR,,0.00,WeatherDisplay:10.37,2013-01-10 07:01:00,
2013-01-10 02:06:00,28.9,20.0,30.17,WNW,288,0.0,0.0,69,0.00,CLR,,0.00,WeatherDisplay:10.37,2013-01-10 07:06:00,
2013-01-10 02:11:00,28.8,19.9,30.17,WNW,288,0.0,0.0,69,0.00,CLR,,0.00,WeatherDisplay:10.37,2013-01-10 07:11:00,
2013-01-10 02:16:00,28.8,20.2,30.17,WNW,288,0.0,0.0,70,0.00,CLR,,0.00,WeatherDisplay:10.37,2013-01-10 07:16:00,
2013-01-10 02:21:00,28.6,20.0,30.17,WNW,288,0.0,0.0,70,0.00,CLR,,0.00,WeatherDisplay:10.37,2013-01-10 07:21:00,
2013-01-10 02:26:00,28.6,20.4,30.17,WNW,288,0.0,0.0,71,0.00,CLR,,0.00,WeatherDisplay:10.37,2013-01-10 07:26:00,
2013-01-10 02:31:00,28.4,20.2,30.20,WNW,288,0.0,0.0,71,0.00,CLR,,0.00,WeatherDisplay:10.37,2013-01-10 07:31:00,
2013-01-10 02:36:00,28.2,20.0,30.20,WNW,288,0.0,0.0,71,0.00,CLR,,0.00,WeatherDisplay:10.37,2013-01-10 07:36:00,
2013-01-10 02:41:00,28.0,20.2,30.20,WNW,288,0.0,0.0,72,0.00,CLR,,0.00,WeatherDisplay:10.37,2013-01-10 07:41:00,
2013-01-10 02:46:00,28.0,20.2,30.17,WNW,288,0.0,0.0,72,0.00,CLR,,0.00,WeatherDisplay:10.37,2013-01-10 07:46:00,
2013-01-10 02:51:00,28.0,20.5,30.17,WNW,288,0.0,0.0,73,0.00,CLR,,0.00,WeatherDisplay:10.37,2013-01-10 07:51:00,
2013-01-10 02:56:00,28.0,20.5,30.17,WNW,288,0.0,0.0,73,0.00,CLR,,0.00,WeatherDisplay:10.37,2013-01-10 07:56:00,
2013-01-10 03:01:00,27.9,20.3,30.17,WNW,288,0.0,0.0,73,0.00,CLR,,0.00,WeatherDisplay:10.37,2013-01-10 08:01:00,
2013-01-10 03:06:00,27.7,20.2,30.17,WNW,291,0.0,0.0,73,0.00,CLR,,0.00,WeatherDisplay:10.37,2013-01-10 08:06:00,
2013-01-10 03:11:00,27.7,20.2,30.17,WNW,288,0.0,0.0,73,0.00,CLR,,0.00,WeatherDisplay:10.37,2013-01-10 08:11:00,
2013-01-10 03:16:00,27.7,20.5,30.17,WNW,288,0.0,0.0,74,0.00,CLR,,0.00,WeatherDisplay:10.37,2013-01-10 08:16:00,
2013-01-10 03:21:00,27.7,20.5,30.17,WNW,288,0.0,0.0,74,0.00,CLR,,0.00,WeatherDisplay:10.37,2013-01-10 08:21:00,
2013-01-10 03:26:00,27.9,21.0,30.17,WNW,288,0.0,0.0,75,0.00,CLR,,0.00,WeatherDisplay:10.37,2013-01-10 08:26:00,
2013-01-10 03:31:00,27.7,20.8,30.17,WNW,288,0.0,0.0,75,0.00,CLR,,0.00,WeatherDisplay:10.37,2013-01-10 08:31:00,
2013-01-10 03:36:00,27.7,21.4,30.17,WNW,288,0.0,0.0,77,0.00,CLR,,0.00,WeatherDisplay:10.37,2013-01-10 08:36:00,
2013-01-10 03:41:00,28.0,22.7,30.17,WNW,288,0.0,0.0,80,0.00,CLR,,0.00,WeatherDisplay:10.37,2013-01-10 08:41:00,
2013-01-10 03:46:00,27.7,21.4,30.17,WNW,288,0.0,0.0,77,0.00,CLR,,0.00,WeatherDisplay:10.37,2013-01-10 08:46:00,
2013-01-10 03:51:00,27.5,20.9,30.17,WNW,288,0.0,0.0,76,0.00,CLR,,0.00,WeatherDisplay:10.37,2013-01-10 08:51:00,
2013-01-10 03:56:00,27.3,20.8,30.17,WNW,288,0.0,0.0,76,0.00,CLR,,0.00,WeatherDisplay:10.37,2013-01-10 08:56:00,
2013-01-10 04:01:00,27.3,20.8,30.17,WNW,288,0.0,0.0,76,0.00,CLR,,0.00,WeatherDisplay:10.37,2013-01-10 09:01:00,
2013-01-10 04:06:00,27.0,20.4,30.17,WNW,288,0.0,0.0,76,0.00,CLR,,0.00,WeatherDisplay:10.37,2013-01-10 09:06:00,
2013-01-10 04:11:00,27.0,20.7,30.17,WNW,288,0.0,0.0,77,0.00,CLR,,0.00,WeatherDisplay:10.37,2013-01-10 09:11:00,
2013-01-10 04:16:00,27.0,21.0,30.14,WNW,288,0.0,0.0,78,0.00,CLR,,0.00,WeatherDisplay:10.37,2013-01-10 09:16:00,
2013-01-10 04:21:00,27.1,22.4,30.14,WNW,288,0.0,0.0,82,0.00,CLR,,0.00,WeatherDisplay:10.37,2013-01-10 09:21:00,
2013-01-10 04:26:00,27.3,22.8,30.14,WNW,288,0.0,0.0,83,0.00,CLR,,0.00,WeatherDisplay:10.37,2013-01-10 09:26:00,
2013-01-10 04:31:00,27.1,22.9,30.14,WNW,288,0.0,0.0,84,0.00,CLR,,0.00,WeatherDisplay:10.37,2013-01-10 09:31:00,
2013-01-10 04:36:00,27.3,23.1,30.14,WNW,288,0.0,0.0,84,0.00,CLR,,0.00,WeatherDisplay:10.37,2013-01-10 09:36:00,
2013-01-10 04:41:00,27.3,23.1,30.14,WNW,288,0.0,0.0,84,0.00,CLR,,0.00,WeatherDisplay:10.37,2013-01-10 09:41:00,
2013-01-10 04:46:00,27.1,22.7,30.14,WNW,288,0.0,0.0,83,0.00,CLR,,0.00,WeatherDisplay:10.37,2013-01-10 09:46:00,
2013-01-10 04:51:00,27.1,22.9,30.14,WNW,288,0.0,0.0,84,0.00,CLR,,0.00,WeatherDisplay:10.37,2013-01-10 09:51:00,
2013-01-10 04:56:00,27.1,23.2,30.14,WNW,288,0.0,0.0,85,0.00,CLR,,0.00,WeatherDisplay:10.37,2013-01-10 09:56:00,
2013-01-10 05:01:00,27.1,22.9,30.17,WNW,288,0.0,0.0,84,0.00,CLR,,0.00,WeatherDisplay:10.37,2013-01-10 10:01:00,
2013-01-10 05:06:00,27.1,23.5,30.17,WNW,288,0.0,0.0,86,0.00,CLR,,0.00,WeatherDisplay:10.37,2013-01-10 10:06:00,
2013-01-10 05:11:00,27.5,24.4,30.17,WNW,288,0.0,0.0,88,0.00,CLR,,0.00,WeatherDisplay:10.37,2013-01-10 10:11:00,
2013-01-10 05:16:00,27.3,24.2,30.17,WNW,288,0.0,0.0,88,0.00,CLR,,0.00,WeatherDisplay:10.37,2013-01-10 10:16:00,
2013-01-10 05:21:00,27.5,24.7,30.17,WNW,288,0.0,0.0,89,0.00,CLR,,0.00,WeatherDisplay:10.37,2013-01-10 10:21:00,
2013-01-10 05:26:00,27.5,24.7,30.17,WNW,288,0.0,0.0,89,0.00,CLR,,0.00,WeatherDisplay:10.37,2013-01-10 10:26:00,
2013-01-10 05:31:00,27.3,24.5,30.20,WNW,288,0.0,0.0,89,0.00,CLR,,0.00,WeatherDisplay:10.37,2013-01-10 10:31:00,
2013-01-10 05:36:00,27.5,24.7,30.20,WNW,288,0.0,0.0,89,0.00,CLR,,0.00,WeatherDisplay:10.37,2013-01-10 10:36:00,
2013-01-10 05:41:00,27.5,24.7,30.20,WNW,288,0.0,0.0,89,0.00,CLR,,0.00,WeatherDisplay:10.37,2013-01-10 10:41:00,
2013-01-10 05:46:00,27.3,24.5,30.20,WNW,288,0.0,0.0,89,0.00,CLR,,0.00,WeatherDisplay:10.37,2013-01-10 10:46:00,
2013-01-10 05:51:00,27.5,25.0,30.20,WNW,288,0.0,0.0,90,0.00,CLR,,0.00,WeatherDisplay:10.37,2013-01-10 10:51:00,
2013-01-10 05:56:00,27.5,24.7,30.20,WNW,288,0.0,0.0,89,0.00,CLR,,0.00,WeatherDisplay:10.37,2013-01-10 10:56:00,
2013-01-10 06:01:00,27.3,24.8,30.20,WNW,288,0.0,0.0,90,0.00,CLR,,0.00,WeatherDisplay:10.37,2013-01-10 11:01:00,
2013-01-10 06:06:00,27.1,24.6,30.20,WNW,288,0.0,0.0,90,0.00,CLR,,0.00,WeatherDisplay:10.37,2013-01-10 11:06:00,
2013-01-10 06:11:00,27.0,24.4,30.20,WNW,288,0.0,0.0,90,0.00,CLR,,0.00,WeatherDisplay:10.37,2013-01-10 11:11:00,
2013-01-10 06:16:00,27.0,24.4,30.23,WNW,288,0.0,0.0,90,0.00,CLR,,0.00,WeatherDisplay:10.37,2013-01-10 11:16:00,
2013-01-10 06:21:00,26.8,24.2,30.23,WNW,288,0.0,0.0,90,0.00,CLR,,0.00,WeatherDisplay:10.37,2013-01-10 11:21:00,
2013-01-10 06:26:00,26.6,24.3,30.23,WNW,288,0.0,0.0,91,0.00,CLR,,0.00,WeatherDisplay:10.37,2013-01-10 11:26:00,
2013-01-10 06:31:00,26.8,24.2,30.23,WNW,288,0.0,0.0,90,0.00,CLR,,0.00,WeatherDisplay:10.37,2013-01-10 11:31:00,
2013-01-10 06:36:00,26.6,24.3,30.23,WNW,288,0.0,0.0,91,0.00,CLR,,0.00,WeatherDisplay:10.37,2013-01-10 11:36:00,
2013-01-10 06:41:00,26.6,24.6,30.23,WNW,291,0.0,0.0,92,0.00,CLR,,0.00,WeatherDisplay:10.37,2013-01-10 11:41:00,
2013-01-10 06:46:00,26.6,24.6,30.23,WNW,288,0.0,0.0,92,0.00,CLR,,0.00,WeatherDisplay:10.37,2013-01-10 11:46:00,
2013-01-10 06:51:00,26.4,24.4,30.23,WNW,288,0.0,0.0,92,0.00,CLR,,0.00,WeatherDisplay:10.37,2013-01-10 11:51:00,
2013-01-10 06:56:00,26.2,24.2,30.23,WNW,288,0.0,0.0,92,0.00,CLR,,0.00,WeatherDisplay:10.37,2013-01-10 11:56:00,
2013-01-10 07:01:00,26.2,24.2,30.23,WNW,288,0.0,0.0,92,0.00,CLR,,0.00,WeatherDisplay:10.37,2013-01-10 12:01:00,
2013-01-10 07:06:00,26.6,24.8,30.23,WNW,288,0.0,0.0,93,0.00,CLR,,0.00,WeatherDisplay:10.37,2013-01-10 12:06:00,
2013-01-10 07:11:00,26.2,24.5,30.23,WNW,288,0.0,0.0,93,0.00,CLR,,0.00,WeatherDisplay:10.37,2013-01-10 12:11:00,
2013-01-10 07:16:00,26.2,24.5,30.26,WNW,288,0.0,0.0,93,0.00,CLR,,0.00,WeatherDisplay:10.37,2013-01-10 12:16:00,
2013-01-10 07:21:00,26.2,24.7,30.26,WNW,288,0.0,0.0,94,0.00,CLR,,0.00,WeatherDisplay:10.37,2013-01-10 12:21:00,
2013-01-10 07:26:00,26.2,24.7,30.26,WNW,288,0.0,0.0,94,0.00,CLR,,0.00,WeatherDisplay:10.37,2013-01-10 12:26:00,
2013-01-10 07:31:00,26.4,25.2,30.26,WNW,288,0.0,0.0,95,0.00,CLR,,0.00,WeatherDisplay:10.37,2013-01-10 12:31:00,
2013-01-10 07:36:00,26.2,25.0,30.26,WNW,288,0.0,0.0,95,0.00,CLR,,0.00,WeatherDisplay:10.37,2013-01-10 12:36:00,
2013-01-10 07:41:00,26.6,25.4,30.26,WNW,288,0.0,0.0,95,0.00,CLR,,0.00,WeatherDisplay:10.37,2013-01-10 12:41:00,
2013-01-10 07:46:00,26.2,25.0,30.26,WNW,288,0.0,0.0,95,0.00,CLR,,0.00,WeatherDisplay:10.37,2013-01-10 12:46:00,
2013-01-10 07:51:00,26.1,24.6,30.26,WNW,288,0.0,0.0,94,0.00,CLR,,0.00,WeatherDisplay:10.37,2013-01-10 12:51:00,
2013-01-10 07:56:00,26.1,24.6,30.26,WNW,288,0.0,0.0,94,0.00,CLR,,0.00,WeatherDisplay:10.37,2013-01-10 12:56:00,
2013-01-10 08:01:00,26.1,24.6,30.26,WNW,288,0.0,0.0,94,0.00,CLR,,0.00,WeatherDisplay:10.37,2013-01-10 13:01:00,
2013-01-10 08:06:00,26.1,24.6,30.26,WNW,288,0.0,0.0,94,0.00,CLR,,0.00,WeatherDisplay:10.37,2013-01-10 13:06:00,
2013-01-10 08:11:00,26.2,25.0,30.26,WNW,288,0.0,0.0,95,0.00,CLR,,0.00,WeatherDisplay:10.37,2013-01-10 13:11:00,
2013-01-10 08:16:00,26.2,24.7,30.26,WNW,288,0.0,0.0,94,0.00,CLR,,0.00,WeatherDisplay:10.37,2013-01-10 13:16:00,
2013-01-10 08:21:00,26.6,25.1,30.26,WNW,288,0.0,0.0,94,0.00,CLR,,0.00,WeatherDisplay:10.37,2013-01-10 13:21:00,
2013-01-10 08:26:00,27.9,26.4,30.26,WNW,288,0.0,0.0,94,0.00,CLR,,0.00,WeatherDisplay:10.37,2013-01-10 13:26:00,
2013-01-10 08:31:00,31.1,29.0,30.26,WNW,288,0.0,0.0,92,0.00,CLR,,0.00,WeatherDisplay:10.37,2013-01-10 13:31:00,
2013-01-10 08:36:00,32.0,29.1,30.26,WNW,288,0.0,0.0,89,0.00,CLR,,0.00,WeatherDisplay:10.37,2013-01-10 13:36:00,
2013-01-10 08:41:00,30.7,26.2,30.26,WNW,288,0.0,0.0,83,0.00,CLR,,0.00,WeatherDisplay:10.37,2013-01-10 13:41:00,
2013-01-10 08:46:00,29.7,24.8,30.26,WNW,288,0.0,0.0,82,0.00,CLR,,0.00,WeatherDisplay:10.37,2013-01-10 13:46:00,
2013-01-10 08:51:00,29.5,25.2,30.26,WNW,288,0.0,0.0,84,0.00,CLR,,0.00,WeatherDisplay:10.37,2013-01-10 13:51:00,
2013-01-10 08:56:00,29.8,26.2,30.26,WNW,288,0.0,0.0,86,0.00,CLR,,0.00,WeatherDisplay:10.37,2013-01-10 13:56:00,
2013-01-10 09:01:00,30.0,26.9,30.26,WNW,291,0.0,0.0,88,0.00,CLR,,0.00,WeatherDisplay:10.37,2013-01-10 14:01:00,
2013-01-10 09:06:00,30.2,27.3,30.26,WNW,288,0.0,0.0,89,0.00,CLR,,0.00,WeatherDisplay:10.37,2013-01-10 14:06:00,
2013-01-10 09:11:00,31.5,28.9,30.26,WNW,288,0.0,0.0,90,0.00,CLR,,0.00,WeatherDisplay:10.37,2013-01-10 14:11:00,
2013-01-10 09:16:00,33.8,30.6,30.26,WNW,288,0.0,0.0,88,0.00,CLR,,0.00,WeatherDisplay:10.37,2013-01-10 14:16:00,
2013-01-10 09:21:00,32.7,29.0,30.26,WNW,288,0.0,0.0,86,0.00,CLR,,0.00,WeatherDisplay:10.37,2013-01-10 14:21:00,
2013-01-10 09:26:00,32.5,28.8,30.26,WNW,288,0.0,0.0,86,0.00,CLR,,0.00,WeatherDisplay:10.37,2013-01-10 14:26:00,
2013-01-10 09:31:00,32.7,29.3,30.26,WNW,288,0.0,0.0,87,0.00,CLR,,0.00,WeatherDisplay:10.37,2013-01-10 14:31:00,
2013-01-10 09:36:00,33.4,30.3,30.26,WNW,288,0.0,0.0,88,0.00,CLR,,0.00,WeatherDisplay:10.37,2013-01-10 14:36:00,
2013-01-10 09:41:00,33.8,29.8,30.26,WNW,288,0.0,0.0,85,0.00,CLR,,0.00,WeatherDisplay:10.37,2013-01-10 14:41:00,
2013-01-10 09:46:00,34.2,30.1,30.26,WNW,288,0.0,0.0,85,0.00,CLR,,0.00,WeatherDisplay:10.37,2013-01-10 14:46:00,
2013-01-10 09:51:00,33.8,28.6,30.26,ENE,57,0.0,0.0,81,0.00,CLR,,0.00,WeatherDisplay:10.37,2013-01-10 14:51:00,
2013-01-10 09:56:00,34.0,26.6,30.26,ENE,59,0.0,0.0,74,0.00,CLR,,0.00,WeatherDisplay:10.37,2013-01-10 14:56:00,
2013-01-10 10:01:00,34.2,26.1,30.26,East,80,2.3,2.3,72,0.00,CLR,,0.00,WeatherDisplay:10.37,2013-01-10 15:01:00,
2013-01-10 10:06:00,34.3,24.9,30.26,East,85,3.5,3.5,68,0.00,CLR,,0.00,WeatherDisplay:10.37,2013-01-10 15:06:00,
2013-01-10 10:11:00,34.5,24.3,30.26,East,79,3.5,0.0,66,0.00,CLR,,0.00,WeatherDisplay:10.37,2013-01-10 15:11:00,
2013-01-10 10:16:00,34.9,23.9,30.26,East,97,0.0,0.0,64,0.00,CLR,,0.00,WeatherDisplay:10.37,2013-01-10 15:16:00,
2013-01-10 10:21:00,35.1,23.7,30.26,ESE,111,0.0,0.0,63,0.00,CLR,,0.00,WeatherDisplay:10.37,2013-01-10 15:21:00,
2013-01-10 10:26:00,35.4,23.7,30.26,ENE,67,2.7,2.7,62,0.00,CLR,,0.00,WeatherDisplay:10.37,2013-01-10 15:26:00,
2013-01-10 10:31:00,35.8,23.6,30.26,ENE,67,0.0,0.0,61,0.00,CLR,,0.00,WeatherDisplay:10.37,2013-01-10 15:31:00,
2013-01-10 10:36:00,36.0,23.4,30.26,NE,49,2.3,2.7,60,0.00,CLR,,0.00,WeatherDisplay:10.37,2013-01-10 15:36:00,
2013-01-10 10:41:00,36.3,23.8,30.26,NE,56,0.0,0.0,60,0.00,CLR,,0.00,WeatherDisplay:10.37,2013-01-10 15:41:00,
2013-01-10 10:46:00,36.7,23.7,30.26,ESE,106,2.3,0.0,59,0.00,CLR,,0.00,WeatherDisplay:10.37,2013-01-10 15:46:00,
2013-01-10 10:51:00,37.0,23.2,30.26,ESE,106,2.2,0.0,57,0.00,CLR,,0.00,WeatherDisplay:10.37,2013-01-10 15:51:00,
2013-01-10 10:56:00,37.0,22.4,30.26,East,99,2.3,2.3,55,0.00,CLR,,0.00,WeatherDisplay:10.37,2013-01-10 15:56:00,
2013-01-10 11:01:00,37.2,22.1,30.26,ESE,120,3.6,0.0,54,0.00,CLR,,0.00,WeatherDisplay:10.37,2013-01-10 16:01:00,
2013-01-10 11:06:00,38.1,22.0,30.26,East,89,0.0,0.0,52,0.00,CLR,,0.00,WeatherDisplay:10.37,2013-01-10 16:06:00,
2013-01-10 11:11:00,38.1,21.6,30.26,ESE,117,3.5,0.0,51,0.00,CLR,,0.00,WeatherDisplay:10.37,2013-01-10 16:11:00,
2013-01-10 11:16:00,38.1,21.1,30.26,SE,127,3.5,3.5,50,0.00,CLR,,0.00,WeatherDisplay:10.37,2013-01-10 16:16:00,
2013-01-10 11:21:00,38.8,21.8,30.26,ESE,117,3.5,0.0,50,0.00,CLR,,0.00,WeatherDisplay:10.37,2013-01-10 16:21:00,
2013-01-10 11:26:00,38.7,21.1,30.26,NNE,32,3.5,3.5,49,0.00,CLR,,0.00,WeatherDisplay:10.37,2013-01-10 16:26:00,
2013-01-10 11:31:00,39.0,21.5,30.23,ENE,75,2.7,2.7,49,0.00,CLR,,0.00,WeatherDisplay:10.37,2013-01-10 16:31:00,
2013-01-10 11:36:00,38.8,19.8,30.23,NE,48,0.0,0.0,46,0.00,CLR,,0.00,WeatherDisplay:10.37,2013-01-10 16:36:00,
2013-01-10 11:41:00,38.7,18.6,30.23,NE,52,2.3,0.0,44,0.00,CLR,,0.00,WeatherDisplay:10.37,2013-01-10 16:41:00,
2013-01-10 11:46:00,38.5,18.4,30.23,ENE,60,2.3,0.0,44,0.00,CLR,,0.00,WeatherDisplay:10.37,2013-01-10 16:46:00,
2013-01-10 11:51:00,38.3,16.6,30.23,ESE,102,2.3,0.0,41,0.00,CLR,,0.00,WeatherDisplay:10.37,2013-01-10 16:51:00,
2013-01-10 11:56:00,38.1,16.5,30.23,ESE,118,0.0,0.0,41,0.00,CLR,,0.00,WeatherDisplay:10.37,2013-01-10 16:56:00,
2013-01-10 12:01:00,38.1,16.5,30.23,ESE,118,0.0,2.2,41,0.00,CLR,,0.00,WeatherDisplay:10.37,2013-01-10 17:01:00,
2013-01-10 12:06:00,38.3,16.6,30.23,ESE,118,0.0,2.2,41,0.00,CLR,,0.00,WeatherDisplay:10.37,2013-01-10 17:06:00,
2013-01-10 12:11:00,38.5,16.8,30.23,ESE,117,2.3,0.0,41,0.00,CLR,,0.00,WeatherDisplay:10.37,2013-01-10 17:11:00,
2013-01-10 12:16:00,38.5,15.6,30.20,ESE,123,2.3,2.7,39,0.00,CLR,,0.00,WeatherDisplay:10.37,2013-01-10 17:16:00,
2013-01-10 12:21:00,38.8,16.0,30.20,SE,127,2.7,0.0,39,0.00,CLR,,0.00,WeatherDisplay:10.37,2013-01-10 17:21:00,
2013-01-10 12:26:00,39.6,16.0,30.20,SE,127,2.7,0.0,38,0.00,CLR,,0.00,WeatherDisplay:10.37,2013-01-10 17:26:00,
2013-01-10 12:31:00,39.9,16.3,30.20,SE,127,2.3,0.0,38,0.00,CLR,,0.00,WeatherDisplay:10.37,2013-01-10 17:31:00,
2013-01-10 12:36:00,39.4,15.8,30.20,SE,128,2.3,2.3,38,0.00,CLR,,0.00,WeatherDisplay:10.37,2013-01-10 17:36:00,
2013-01-10 12:41:00,38.8,16.0,30.20,SE,126,2.3,3.1,39,0.00,CLR,,0.00,WeatherDisplay:10.37,2013-01-10 17:41:00,
2013-01-10 12:46:00,38.8,16.0,30.17,NNE,31,3.5,0.0,39,0.00,CLR,,0.00,WeatherDisplay:10.37,2013-01-10 17:46:00,
2013-01-10 12:51:00,38.8,16.0,30.17,NNE,29,3.5,4.0,39,0.00,CLR,,0.00,WeatherDisplay:10.37,2013-01-10 17:51:00,
2013-01-10 12:56:00,39.2,15.7,30.17,SSE,152,4.6,4.6,38,0.00,CLR,,0.00,WeatherDisplay:10.37,2013-01-10 17:56:00,
2013-01-10 13:01:00,39.0,16.1,30.20,SE,136,3.5,3.5,39,0.00,CLR,,0.00,WeatherDisplay:10.37,2013-01-10 18:01:00,
2013-01-10 13:06:00,39.4,15.8,30.20,SE,127,3.5,4.0,38,0.00,CLR,,0.00,WeatherDisplay:10.37,2013-01-10 18:06:00,
2013-01-10 13:11:00,39.9,16.3,30.20,SE,127,3.5,4.0,38,0.00,CLR,,0.00,WeatherDisplay:10.37,2013-01-10 18:11:00,
2013-01-10 13:16:00,40.1,16.5,30.17,SE,127,3.5,4.0,38,0.00,CLR,,0.00,WeatherDisplay:10.37,2013-01-10 18:16:00,
2013-01-10 13:21:00,39.7,16.2,30.17,SE,125,3.5,0.0,38,0.00,CLR,,0.00,WeatherDisplay:10.37,2013-01-10 18:21:00,
2013-01-10 13:26:00,39.7,16.2,30.17,ESE,122,0.0,0.0,38,0.00,CLR,,0.00,WeatherDisplay:10.37,2013-01-10 18:26:00,
2013-01-10 13:31:00,40.1,16.5,30.17,ESE,120,0.0,0.0,38,0.00,CLR,,0.00,WeatherDisplay:10.37,2013-01-10 18:31:00,
2013-01-10 13:36:00,40.3,16.7,30.17,East,100,2.3,0.0,38,0.00,CLR,,0.00,WeatherDisplay:10.37,2013-01-10 18:36:00,
2013-01-10 13:41:00,39.4,15.8,30.17,SE,126,3.5,3.5,38,0.00,CLR,,0.00,WeatherDisplay:10.37,2013-01-10 18:41:00,
2013-01-10 13:46:00,39.7,16.2,30.17,East,89,2.7,0.0,38,0.00,CLR,,0.00,WeatherDisplay:10.37,2013-01-10 18:46:00,
2013-01-10 13:51:00,39.9,16.3,30.17,NE,36,3.5,0.0,38,0.00,CLR,,0.00,WeatherDisplay:10.37,2013-01-10 18:51:00,
2013-01-10 13:56:00,40.6,17.0,30.17,ESE,104,0.0,0.0,38,0.00,CLR,,0.00,WeatherDisplay:10.37,2013-01-10 18:56:00,
2013-01-10 14:01:00,40.8,17.1,30.17,ESE,109,2.3,0.0,38,0.00,CLR,,0.00,WeatherDisplay:10.37,2013-01-10 19:01:00,
2013-01-10 14:06:00,40.6,17.0,30.17,ESE,116,3.5,3.5,38,0.00,CLR,,0.00,WeatherDisplay:10.37,2013-01-10 19:06:00,
2013-01-10 14:11:00,40.5,16.8,30.17,ESE,116,0.0,0.0,38,0.00,CLR,,0.00,WeatherDisplay:10.37,2013-01-10 19:11:00,
2013-01-10 14:16:00,40.6,17.0,30.17,ESE,116,0.0,0.0,38,0.00,CLR,,0.00,WeatherDisplay:10.37,2013-01-10 19:16:00,
2013-01-10 14:21:00,40.8,17.1,30.17,ENE,60,0.0,0.0,38,0.00,CLR,,0.00,WeatherDisplay:10.37,2013-01-10 19:21:00,
2013-01-10 14:26:00,41.0,16.0,30.17,ENE,58,3.5,3.5,36,0.00,CLR,,0.00,WeatherDisplay:10.37,2013-01-10 19:26:00,
2013-01-10 14:32:00,41.0,16.0,30.17,East,81,3.5,3.5,36,0.00,CLR,,0.00,WeatherDisplay:10.37,2013-01-10 19:32:00,
2013-01-10 14:37:00,40.8,15.9,30.17,SE,134,3.5,3.6,36,0.00,CLR,,0.00,WeatherDisplay:10.37,2013-01-10 19:37:00,
2013-01-10 14:42:00,40.8,15.9,30.17,ESE,110,4.6,0.0,36,0.00,CLR,,0.00,WeatherDisplay:10.37,2013-01-10 19:42:00,
2013-01-10 14:47:00,41.2,16.2,30.14,SE,127,3.5,3.5,36,0.00,CLR,,0.00,WeatherDisplay:10.37,2013-01-10 19:47:00,
2013-01-10 14:52:00,41.0,16.0,30.14,ESE,115,3.5,3.5,36,0.00,CLR,,0.00,WeatherDisplay:10.37,2013-01-10 19:52:00,
2013-01-10 14:57:00,40.8,15.9,30.14,SE,134,3.5,3.5,36,0.00,CLR,,0.00,WeatherDisplay:10.37,2013-01-10 19:57:00,
2013-01-10 15:02:00,40.6,15.7,30.14,ENE,62,2.7,2.7,36,0.00,CLR,,0.00,WeatherDisplay:10.37,2013-01-10 20:02:00,
2013-01-10 15:07:00,40.6,15.7,30.14,North,3,3.5,0.0,36,0.00,CLR,,0.00,WeatherDisplay:10.37,2013-01-10 20:07:00,
2013-01-10 15:12:00,40.3,15.4,30.14,SE,131,3.5,3.5,36,0.00,CLR,,0.00,WeatherDisplay:10.37,2013-01-10 20:12:00,
2013-01-10 15:17:00,40.1,15.2,30.14,SE,135,3.5,3.5,36,0.00,CLR,,0.00,WeatherDisplay:10.37,2013-01-10 20:17:00,
2013-01-10 15:22:00,40.1,15.2,30.14,NNW,346,2.3,0.0,36,0.00,CLR,,0.00,WeatherDisplay:10.37,2013-01-10 20:22:00,
2013-01-10 15:27:00,40.1,15.2,30.14,ENE,58,3.5,3.5,36,0.00,CLR,,0.00,WeatherDisplay:10.37,2013-01-10 20:27:00,
2013-01-10 15:32:00,40.1,15.2,30.14,NNE,28,2.3,0.0,36,0.00,CLR,,0.00,WeatherDisplay:10.37,2013-01-10 20:32:00,
2013-01-10 15:37:00,40.3,15.4,30.14,ENE,66,3.5,0.0,36,0.00,CLR,,0.00,WeatherDisplay:10.37,2013-01-10 20:37:00,
2013-01-10 15:42:00,40.1,15.2,30.14,SSE,148,0.0,0.0,36,0.00,CLR,,0.00,WeatherDisplay:10.37,2013-01-10 20:42:00,
2013-01-10 15:47:00,39.7,14.9,30.14,SSE,148,0.0,0.0,36,0.00,CLR,,0.00,WeatherDisplay:10.37,2013-01-10 20:47:00,
2013-01-10 15:52:00,39.0,14.3,30.14,NE,44,2.7,2.7,36,0.00,CLR,,0.00,WeatherDisplay:10.37,2013-01-10 20:52:00,
2013-01-10 15:58:00,38.8,14.1,30.14,North,353,0.0,0.0,36,0.00,CLR,,0.00,WeatherDisplay:10.37,2013-01-10 20:58:00,
2013-01-10 16:03:00,39.0,14.3,30.14,NW,320,0.0,0.0,36,0.00,CLR,,0.00,WeatherDisplay:10.37,2013-01-10 21:03:00,
2013-01-10 16:08:00,39.2,14.4,30.14,NNE,17,3.5,0.0,36,0.00,CLR,,0.00,WeatherDisplay:10.37,2013-01-10 21:08:00,
2013-01-10 16:13:00,38.8,14.1,30.11,North,9,0.0,0.0,36,0.00,CLR,,0.00,WeatherDisplay:10.37,2013-01-10 21:13:00,
2013-01-10 16:18:00,38.8,14.1,30.11,NNE,20,3.5,0.0,36,0.00,CLR,,0.00,WeatherDisplay:10.37,2013-01-10 21:18:00,
2013-01-10 16:23:00,38.7,14.0,30.11,North,4,3.5,0.0,36,0.00,CLR,,0.00,WeatherDisplay:10.37,2013-01-10 21:23:00,
2013-01-10 16:28:00,38.5,13.8,30.11,WNW,300,2.3,0.0,36,0.00,CLR,,0.00,WeatherDisplay:10.37,2013-01-10 21:28:00,
2013-01-10 16:33:00,38.5,13.8,30.11,NW,318,3.5,0.0,36,0.00,CLR,,0.00,WeatherDisplay:10.37,2013-01-10 21:33:00,
2013-01-10 16:38:00,38.3,13.6,30.11,WNW,298,3.5,0.0,36,0.00,CLR,,0.00,WeatherDisplay:10.37,2013-01-10 21:38:00,
2013-01-10 16:43:00,38.1,13.5,30.14,WNW,295,0.0,0.0,36,0.00,CLR,,0.00,WeatherDisplay:10.37,2013-01-10 21:43:00,
2013-01-10 16:48:00,37.9,13.3,30.14,WNW,295,0.0,0.0,36,0.00,CLR,,0.00,WeatherDisplay:10.37,2013-01-10 21:48:00,
2013-01-10 16:53:00,37.6,13.0,30.14,NNW,327,0.0,0.0,36,0.00,CLR,,0.00,WeatherDisplay:10.37,2013-01-10 21:53:00,
2013-01-10 16:58:00,37.4,12.8,30.11,NNW,328,0.0,0.0,36,0.00,CLR,,0.00,WeatherDisplay:10.37,2013-01-10 21:58:00,
2013-01-10 17:03:00,37.2,13.3,30.11,East,84,3.1,0.0,37,0.00,CLR,,0.00,WeatherDisplay:10.37,2013-01-10 22:03:00,
2013-01-10 17:08:00,37.4,12.8,30.11,North,11,0.0,0.0,36,0.00,CLR,,0.00,WeatherDisplay:10.37,2013-01-10 22:08:00,
2013-01-10 17:13:00,37.4,14.7,30.11,North,11,0.0,0.0,39,0.00,CLR,,0.00,WeatherDisplay:10.37,2013-01-10 22:13:00,
2013-01-10 17:18:00,37.6,14.8,30.14,NE,45,0.0,0.0,39,0.00,CLR,,0.00,WeatherDisplay:10.37,2013-01-10 22:18:00,
2013-01-10 17:23:00,37.6,13.0,30.14,ENE,61,0.0,0.0,36,0.00,CLR,,0.00,WeatherDisplay:10.37,2013-01-10 22:23:00,
2013-01-10 17:28:00,37.6,13.0,30.14,ENE,60,0.0,0.0,36,0.00,CLR,,0.00,WeatherDisplay:10.37,2013-01-10 22:28:00,
2013-01-10 17:33:00,37.6,13.0,30.14,ENE,77,0.0,0.0,36,0.00,CLR,,0.00,WeatherDisplay:10.37,2013-01-10 22:33:00,
2013-01-10 17:38:00,37.4,14.7,30.14,North,349,0.0,0.0,39,0.00,CLR,,0.00,WeatherDisplay:10.37,2013-01-10 22:38:00,
2013-01-10 17:43:00,37.4,14.7,30.14,North,357,0.0,0.0,39,0.00,CLR,,0.00,WeatherDisplay:10.37,2013-01-10 22:43:00,
2013-01-10 17:48:00,37.6,14.8,30.14,NW,317,0.0,0.0,39,0.00,CLR,,0.00,WeatherDisplay:10.37,2013-01-10 22:48:00,
2013-01-10 17:53:00,37.6,14.8,30.14,NW,318,0.0,0.0,39,0.00,CLR,,0.00,WeatherDisplay:10.37,2013-01-10 22:53:00,
2013-01-10 17:58:00,37.6,14.8,30.14,NW,311,2.3,0.0,39,0.00,CLR,,0.00,WeatherDisplay:10.37,2013-01-10 22:58:00,
2013-01-10 18:03:00,37.6,14.8,30.14,NW,320,0.0,0.0,39,0.00,CLR,,0.00,WeatherDisplay:10.37,2013-01-10 23:03:00,
2013-01-10 18:08:00,37.4,14.7,30.14,NW,320,0.0,0.0,39,0.00,CLR,,0.00,WeatherDisplay:10.37,2013-01-10 23:08:00,
2013-01-10 18:13:00,37.2,14.5,30.14,NW,320,0.0,0.0,39,0.00,CLR,,0.00,WeatherDisplay:10.37,2013-01-10 23:13:00,
2013-01-10 18:18:00,37.0,14.3,30.14,NW,320,0.0,0.0,39,0.00,CLR,,0.00,WeatherDisplay:10.37,2013-01-10 23:18:00,
2013-01-10 18:23:00,36.9,14.2,30.14,NW,320,0.0,0.0,39,0.00,CLR,,0.00,WeatherDisplay:10.37,2013-01-10 23:23:00,
2013-01-10 18:28:00,37.4,14.7,30.11,NW,317,0.0,0.0,39,0.00,CLR,,0.00,WeatherDisplay:10.37,2013-01-10 23:28:00,
2013-01-10 18:33:00,37.6,14.8,30.11,NW,315,0.0,0.0,39,0.00,CLR,,0.00,WeatherDisplay:10.37,2013-01-10 23:33:00,
2013-01-10 18:38:00,37.4,14.7,30.11,NW,316,0.0,0.0,39,0.00,CLR,,0.00,WeatherDisplay:10.37,2013-01-10 23:38:00,
2013-01-10 18:43:00,37.4,14.7,30.11,SW,221,0.0,0.0,39,0.00,CLR,,0.00,WeatherDisplay:10.37,2013-01-10 23:43:00,
2013-01-10 18:48:00,37.4,14.7,30.14,WSW,237,0.0,0.0,39,0.00,CLR,,0.00,WeatherDisplay:10.37,2013-01-10 23:48:00,
2013-01-10 18:53:00,37.4,14.7,30.14,West,265,0.0,0.0,39,0.00,CLR,,0.00,WeatherDisplay:10.37,2013-01-10 23:53:00,
2013-01-10 18:58:00,37.4,14.7,30.14,West,265,0.0,0.0,39,0.00,CLR,,0.00,WeatherDisplay:10.37,2013-01-10 23:58:00,
2013-01-10 19:03:00,37.4,14.7,30.14,West,265,0.0,0.0,39,0.00,CLR,,0.00,WeatherDisplay:10.37,2013-01-11 00:03:00,
2013-01-10 19:08:00,37.4,14.7,30.14,NNW,329,2.3,0.0,39,0.00,CLR,,0.00,WeatherDisplay:10.37,2013-01-11 00:08:00,
2013-01-10 19:13:00,37.6,14.8,30.14,NNW,329,0.0,0.0,39,0.00,CLR,,0.00,WeatherDisplay:10.37,2013-01-11 00:13:00,
2013-01-10 19:18:00,37.6,14.8,30.14,NNW,329,0.0,0.0,39,0.00,CLR,,0.00,WeatherDisplay:10.37,2013-01-11 00:18:00,
2013-01-10 19:23:00,37.4,14.7,30.14,NNE,12,0.0,0.0,39,0.00,CLR,,0.00,WeatherDisplay:10.37,2013-01-11 00:23:00,
2013-01-10 19:28:00,37.4,14.7,30.11,NNE,12,0.0,0.0,39,0.00,CLR,,0.00,WeatherDisplay:10.37,2013-01-11 00:28:00,
2013-01-10 19:33:00,37.4,14.7,30.11,NNE,12,0.0,0.0,39,0.00,CLR,,0.00,WeatherDisplay:10.37,2013-01-11 00:33:00,
2013-01-10 19:38:00,37.2,14.5,30.11,NNE,12,0.0,0.0,39,0.00,CLR,,0.00,WeatherDisplay:10.37,2013-01-11 00:38:00,
2013-01-10 19:43:00,37.4,14.7,30.11,NNE,19,0.0,0.0,39,0.00,CLR,,0.00,WeatherDisplay:10.37,2013-01-11 00:43:00,
2013-01-10 19:48:00,37.4,14.7,30.11,North,0,0.0,0.0,39,0.00,CLR,,0.00,WeatherDisplay:10.37,2013-01-11 00:48:00,
2013-01-10 19:54:00,37.6,14.8,30.11,SE,139,0.0,0.0,39,0.00,CLR,,0.00,WeatherDisplay:10.37,2013-01-11 00:54:00,
2013-01-10 19:59:00,37.8,13.2,30.11,NNW,339,2.7,0.0,36,0.00,CLR,,0.00,WeatherDisplay:10.37,2013-01-11 00:59:00,
2013-01-10 20:04:00,37.8,13.2,30.11,ENE,72,3.5,3.5,36,0.00,CLR,,0.00,WeatherDisplay:10.37,2013-01-11 01:04:00,
2013-01-10 20:09:00,37.9,13.3,30.11,East,81,3.5,3.5,36,0.00,CLR,,0.00,WeatherDisplay:10.37,2013-01-11 01:09:00,
2013-01-10 20:14:00,37.9,13.3,30.08,South,176,3.5,3.5,36,0.00,CLR,,0.00,WeatherDisplay:10.37,2013-01-11 01:14:00,
2013-01-10 20:19:00,37.8,13.2,30.08,ESE,102,0.0,0.0,36,0.00,CLR,,0.00,WeatherDisplay:10.37,2013-01-11 01:19:00,
2013-01-10 20:24:00,37.9,13.3,30.08,East,86,2.3,0.0,36,0.00,CLR,,0.00,WeatherDisplay:10.37,2013-01-11 01:24:00,
2013-01-10 20:29:00,37.9,13.3,30.08,NE,49,3.5,3.5,36,0.00,CLR,,0.00,WeatherDisplay:10.37,2013-01-11 01:29:00,
2013-01-10 20:34:00,38.1,13.5,30.08,East,87,2.3,0.0,36,0.00,CLR,,0.00,WeatherDisplay:10.37,2013-01-11 01:34:00,
2013-01-10 20:39:00,38.1,13.5,30.08,ESE,103,0.0,0.0,36,0.00,CLR,,0.00,WeatherDisplay:10.37,2013-01-11 01:39:00,
2013-01-10 20:44:00,37.9,13.3,30.08,ENE,63,2.3,0.0,36,0.00,CLR,,0.00,WeatherDisplay:10.37,2013-01-11 01:44:00,
2013-01-10 20:49:00,38.1,13.5,30.08,NNE,17,0.0,0.0,36,0.00,CLR,,0.00,WeatherDisplay:10.37,2013-01-11 01:49:00,
2013-01-10 20:54:00,37.9,13.3,30.08,NNE,17,0.0,0.0,36,0.00,CLR,,0.00,WeatherDisplay:10.37,2013-01-11 01:54:00,
2013-01-10 20:59:00,37.8,13.2,30.11,NNE,17,0.0,0.0,36,0.00,CLR,,0.00,WeatherDisplay:10.37,2013-01-11 01:59:00,
2013-01-10 21:04:00,37.6,13.0,30.11,NNE,17,0.0,0.0,36,0.00,CLR,,0.00,WeatherDisplay:10.37,2013-01-11 02:04:00,
2013-01-10 21:09:00,37.6,13.0,30.11,NNE,17,0.0,0.0,36,0.00,CLR,,0.00,WeatherDisplay:10.37,2013-01-11 02:09:00,
2013-01-10 21:14:00,37.4,12.8,30.08,NNW,344,2.3,0.0,36,0.00,CLR,,0.00,WeatherDisplay:10.37,2013-01-11 02:14:00,
2013-01-10 21:19:00,37.0,13.1,30.08,NNW,344,0.0,0.0,37,0.00,CLR,,0.00,WeatherDisplay:10.37,2013-01-11 02:19:00,
2013-01-10 21:24:00,36.7,14.0,30.08,NNW,344,0.0,0.0,39,0.00,CLR,,0.00,WeatherDisplay:10.37,2013-01-11 02:24:00,
2013-01-10 21:29:00,36.5,13.9,30.05,NNW,344,0.0,0.0,39,0.00,CLR,,0.00,WeatherDisplay:10.37,2013-01-11 02:29:00,
2013-01-10 21:34:00,36.5,13.9,30.05,NNW,344,0.0,0.0,39,0.00,CLR,,0.00,WeatherDisplay:10.37,2013-01-11 02:34:00,
2013-01-10 21:39:00,36.9,14.2,30.05,NNW,344,0.0,0.0,39,0.00,CLR,,0.00,WeatherDisplay:10.37,2013-01-11 02:39:00,
2013-01-10 21:44:00,37.4,14.7,30.05,SE,130,2.7,0.0,39,0.00,CLR,,0.00,WeatherDisplay:10.37,2013-01-11 02:44:00,
2013-01-10 21:49:00,37.4,14.7,30.05,North,1,2.3,0.0,39,0.00,CLR,,0.00,WeatherDisplay:10.37,2013-01-11 02:49:00,
2013-01-10 21:54:00,37.4,12.8,30.05,North,4,3.5,3.5,36,0.00,CLR,,0.00,WeatherDisplay:10.37,2013-01-11 02:54:00,
2013-01-10 21:59:00,37.6,13.0,30.05,ENE,69,2.3,0.0,36,0.00,CLR,,0.00,WeatherDisplay:10.37,2013-01-11 02:59:00,
2013-01-10 22:04:00,37.8,13.2,30.05,ENE,58,2.3,0.0,36,0.00,CLR,,0.00,WeatherDisplay:10.37,2013-01-11 03:04:00,
2013-01-10 22:09:00,37.8,13.2,30.05,South,178,3.5,0.0,36,0.00,CLR,,0.00,WeatherDisplay:10.37,2013-01-11 03:09:00,
2013-01-10 22:14:00,38.1,13.5,30.05,East,90,3.5,3.5,36,0.00,CLR,,0.00,WeatherDisplay:10.37,2013-01-11 03:14:00,
2013-01-10 22:19:00,38.5,13.8,30.05,South,179,0.0,0.0,36,0.00,CLR,,0.00,WeatherDisplay:10.37,2013-01-11 03:19:00,
2013-01-10 22:24:00,38.3,13.6,30.05,SSW,207,2.3,0.0,36,0.00,CLR,,0.00,WeatherDisplay:10.37,2013-01-11 03:24:00,
2013-01-10 22:29:00,38.3,13.6,30.05,East,94,2.3,2.3,36,0.00,CLR,,0.00,WeatherDisplay:10.37,2013-01-11 03:29:00,
2013-01-10 22:34:00,38.1,13.5,30.05,SE,133,2.3,0.0,36,0.00,CLR,,0.00,WeatherDisplay:10.37,2013-01-11 03:34:00,
2013-01-10 22:39:00,38.5,13.8,30.05,East,82,2.3,0.0,36,0.00,CLR,,0.00,WeatherDisplay:10.37,2013-01-11 03:39:00,
2013-01-10 22:44:00,38.5,13.8,30.02,North,10,2.3,0.0,36,0.00,CLR,,0.00,WeatherDisplay:10.37,2013-01-11 03:44:00,
2013-01-10 22:49:00,38.5,13.8,30.02,NW,312,0.0,0.0,36,0.00,CLR,,0.00,WeatherDisplay:10.37,2013-01-11 03:49:00,
2013-01-10 22:54:00,38.3,13.6,30.02,NE,49,2.3,2.3,36,0.00,CLR,,0.00,WeatherDisplay:10.37,2013-01-11 03:54:00,
2013-01-10 22:59:00,38.5,13.8,29.99,ENE,74,3.5,3.5,36,0.00,CLR,,0.00,WeatherDisplay:10.37,2013-01-11 03:59:00,
2013-01-10 23:04:00,38.5,13.8,29.99,ESE,117,0.0,0.0,36,0.00,CLR,,0.00,WeatherDisplay:10.37,2013-01-11 04:04:00,
2013-01-10 23:09:00,38.3,13.6,29.99,ENE,67,0.0,0.0,36,0.00,CLR,,0.00,WeatherDisplay:10.37,2013-01-11 04:09:00,
2013-01-10 23:14:00,38.1,13.5,29.99,ENE,76,0.0,0.0,36,0.00,CLR,,0.00,WeatherDisplay:10.37,2013-01-11 04:14:00,
2013-01-10 23:19:00,38.1,13.5,29.99,North,9,0.0,0.0,36,0.00,CLR,,0.00,WeatherDisplay:10.37,2013-01-11 04:19:00,
2013-01-10 23:24:00,38.3,13.6,29.99,ENE,70,2.7,0.0,36,0.00,CLR,,0.00,WeatherDisplay:10.37,2013-01-11 04:24:00,
2013-01-10 23:29:00,38.7,14.0,29.99,South,180,0.0,0.0,36,0.00,CLR,,0.00,WeatherDisplay:10.37,2013-01-11 04:29:00,
2013-01-10 23:34:00,38.5,13.8,29.99,South,180,0.0,0.0,36,0.00,CLR,,0.00,WeatherDisplay:10.37,2013-01-11 04:34:00,
2013-01-10 23:39:00,38.1,13.5,29.99,ENE,75,0.0,0.0,36,0.00,CLR,,0.00,WeatherDisplay:10.37,2013-01-11 04:39:00,
2013-01-10 23:44:00,37.9,13.3,29.99,SW,228,2.3,0.0,36,0.00,CLR,,0.00,WeatherDisplay:10.37,2013-01-11 04:44:00,
2013-01-10 23:49:00,37.9,13.3,29.99,NE,44,0.0,0.0,36,0.00,CLR,,0.00,WeatherDisplay:10.37,2013-01-11 04:49:00,
2013-01-10 23:54:00,37.8,13.2,29.99,NNE,20,0.0,0.0,36,0.00,CLR,,0.00,WeatherDisplay:10.37,2013-01-11 04:54:00,
2013-01-10 23:59:00,37.8,13.2,29.96,NE,48,2.7,0.0,36,0.00,CLR,,0.00,WeatherDisplay:10.37,2013-01-11 04:59:00,